createdAt,value
2022-10-23T00:00:58.281Z,98.87
2022-10-23T00:03:24.773Z,99.57
2022-10-23T00:05:51.227Z,100.00
2022-10-23T00:08:17.709Z,100.00
2022-10-23T00:10:44.653Z,100.00
2022-10-23T00:13:11.072Z,100.00
2022-10-23T00:15:37.831Z,100.00
2022-10-23T00:18:04.762Z,100.00
2022-10-23T00:20:31.215Z,100.00
2022-10-23T00:22:57.679Z,100.00
2022-10-23T00:25:24.128Z,100.00
2022-10-23T00:27:50.548Z,100.00
2022-10-23T00:30:17.034Z,100.00
2022-10-23T00:32:43.465Z,100.00
2022-10-23T00:35:09.910Z,100.00
2022-10-23T00:37:36.332Z,100.00
2022-10-23T00:40:04.610Z,100.00
2022-10-23T00:42:31.068Z,100.00
2022-10-23T00:45:19.002Z,100.00
2022-10-23T00:47:47.273Z,100.00
2022-10-23T00:50:14.031Z,100.00
2022-10-23T00:52:45.139Z,100.00
2022-10-23T00:55:11.925Z,100.00
2022-10-23T00:57:42.217Z,100.00
2022-10-23T01:00:09.580Z,100.00
2022-10-23T01:02:36.143Z,100.00
2022-10-23T01:05:02.683Z,100.00
2022-10-23T01:07:32.055Z,100.00
2022-10-23T01:10:17.535Z,100.00
2022-10-23T01:12:55.759Z,100.00
2022-10-23T01:15:31.077Z,100.00
2022-10-23T01:18:05.720Z,100.00
2022-10-23T01:20:38.275Z,100.00
2022-10-23T01:23:35.138Z,100.00
2022-10-23T01:26:56.916Z,100.00
2022-10-23T01:29:45.442Z,100.00
2022-10-23T01:32:39.614Z,100.00
2022-10-23T01:35:12.263Z,100.00
2022-10-23T01:37:53.837Z,100.00
2022-10-23T01:40:31.075Z,100.00
2022-10-23T01:43:04.539Z,100.00
2022-10-23T01:45:42.584Z,100.00
2022-10-23T01:48:13.545Z,100.00
2022-10-23T01:50:42.782Z,100.00
2022-10-23T01:53:09.779Z,100.00
2022-10-23T01:58:08.597Z,100.00
2022-10-23T02:00:39.570Z,100.00
2022-10-23T02:03:07.898Z,100.00
2022-10-23T02:05:38.156Z,100.00
2022-10-23T02:08:05.980Z,100.00
2022-10-23T02:10:56.036Z,100.00
2022-10-23T02:13:25.463Z,100.00
2022-10-23T02:16:03.654Z,100.00
2022-10-23T02:18:46.379Z,100.00
2022-10-23T02:21:29.658Z,100.00
2022-10-23T02:24:11.756Z,100.00
2022-10-23T02:26:45.857Z,100.00
2022-10-23T02:29:21.370Z,100.00
2022-10-23T02:31:47.838Z,100.00
2022-10-23T02:34:14.376Z,100.00
2022-10-23T02:36:41.326Z,100.00
2022-10-23T02:39:07.769Z,100.00
2022-10-23T02:42:01.450Z,100.00
2022-10-23T02:44:37.428Z,100.00
2022-10-23T02:47:35.162Z,100.00
2022-10-23T02:50:16.154Z,100.00
2022-10-23T02:52:57.895Z,100.00
2022-10-23T02:55:48.293Z,100.00
2022-10-23T02:58:30.906Z,100.00
2022-10-23T03:01:06.220Z,100.00
2022-10-23T03:03:38.362Z,100.00
2022-10-23T03:06:05.077Z,100.00
2022-10-23T03:08:41.867Z,100.00
2022-10-23T03:11:08.311Z,100.00
2022-10-23T03:13:34.754Z,100.00
2022-10-23T03:16:01.374Z,100.00
2022-10-23T03:18:27.829Z,100.00
2022-10-23T03:20:54.297Z,100.00
2022-10-23T03:23:20.685Z,100.00
2022-10-23T03:25:47.129Z,100.00
2022-10-23T03:28:13.611Z,100.00
2022-10-23T03:30:40.126Z,100.00
2022-10-23T03:33:06.601Z,100.00
2022-10-23T03:35:33.079Z,100.00
2022-10-23T03:37:59.518Z,100.00
2022-10-23T03:40:25.973Z,100.00
2022-10-23T03:42:52.537Z,100.00
2022-10-23T03:45:19.368Z,100.00
2022-10-23T03:47:45.956Z,100.00
2022-10-23T03:50:15.584Z,100.00
2022-10-23T03:52:42.672Z,100.00
2022-10-23T03:55:29.829Z,100.00
2022-10-23T03:57:56.326Z,100.00
2022-10-23T04:00:22.837Z,100.00
2022-10-23T04:02:49.492Z,100.00
2022-10-23T04:05:16.220Z,100.00
2022-10-23T04:07:42.770Z,100.00
2022-10-23T04:10:09.865Z,100.00
2022-10-23T04:12:36.441Z,100.00
2022-10-23T04:15:03.264Z,100.00
2022-10-23T04:17:29.934Z,100.00
2022-10-23T04:19:56.526Z,100.00
2022-10-23T04:22:25.955Z,100.00
2022-10-23T04:24:54.156Z,100.00
2022-10-23T04:27:20.579Z,100.00
2022-10-23T04:29:47.073Z,100.00
2022-10-23T04:32:13.503Z,100.00
2022-10-23T04:34:39.921Z,100.00
2022-10-23T04:37:06.391Z,100.00
2022-10-23T04:39:32.822Z,100.00
2022-10-23T04:41:59.237Z,100.00
2022-10-23T04:44:25.644Z,100.00
2022-10-23T04:46:52.103Z,100.00
2022-10-23T04:49:18.521Z,100.00
2022-10-23T04:51:44.960Z,100.00
2022-10-23T04:54:11.436Z,100.00
2022-10-23T04:56:38.016Z,100.00
2022-10-23T05:02:26.629Z,100.00
2022-10-23T05:04:53.317Z,100.00
2022-10-23T05:09:46.105Z,100.00
2022-10-23T05:12:12.554Z,100.00
2022-10-23T05:14:39.142Z,100.00
2022-10-23T05:17:29.265Z,100.00
2022-10-23T05:19:57.735Z,100.00
2022-10-23T05:22:27.112Z,100.00
2022-10-23T05:24:54.647Z,100.00
2022-10-23T05:27:21.184Z,100.00
2022-10-23T05:29:47.707Z,100.00
2022-10-23T05:32:15.972Z,100.00
2022-10-23T05:34:43.044Z,100.00
2022-10-23T05:37:12.787Z,100.00
2022-10-23T05:39:39.376Z,100.00
2022-10-23T05:42:05.868Z,100.00
2022-10-23T05:44:32.314Z,100.00
2022-10-23T05:46:58.832Z,100.00
2022-10-23T05:49:26.051Z,100.00
2022-10-23T05:51:52.927Z,100.00
2022-10-23T05:54:19.395Z,100.00
2022-10-23T05:56:45.853Z,100.00
2022-10-23T05:59:12.315Z,100.00
2022-10-23T06:01:38.959Z,100.00
2022-10-23T06:04:05.952Z,100.00
2022-10-23T06:06:32.438Z,100.00
2022-10-23T06:08:58.991Z,100.00
2022-10-23T06:11:25.520Z,100.00
2022-10-23T06:13:52.175Z,100.00
2022-10-23T06:16:21.517Z,100.00
2022-10-23T06:18:48.539Z,100.00
2022-10-23T06:21:15.786Z,100.00
2022-10-23T06:23:44.285Z,100.00
2022-10-23T06:26:13.743Z,100.00
2022-10-23T06:28:40.725Z,99.94
2022-10-23T06:31:09.198Z,99.85
2022-10-23T06:33:35.773Z,99.07
2022-10-23T06:36:03.692Z,97.99
2022-10-23T06:38:34.558Z,95.94
2022-10-23T06:41:01.037Z,94.22
2022-10-23T06:43:27.493Z,92.50
2022-10-23T06:45:53.985Z,92.29
2022-10-23T06:48:20.457Z,91.20
2022-10-23T06:50:46.888Z,90.82
2022-10-23T06:53:13.457Z,89.34
2022-10-23T06:55:40.213Z,88.77
2022-10-23T06:58:10.645Z,87.58
2022-10-23T07:00:40.199Z,88.15
2022-10-23T07:03:09.022Z,86.14
2022-10-23T07:05:35.526Z,86.75
2022-10-23T07:08:04.706Z,86.86
2022-10-23T07:10:31.164Z,86.99
2022-10-23T07:13:00.748Z,86.97
2022-10-23T07:15:28.206Z,86.97
2022-10-23T07:17:55.297Z,84.61
2022-10-23T07:20:21.747Z,85.67
2022-10-23T07:22:55.967Z,84.84
2022-10-23T07:25:23.736Z,84.78
2022-10-23T07:27:50.589Z,84.46
2022-10-23T07:30:17.373Z,84.75
2022-10-23T07:32:44.649Z,84.37
2022-10-23T07:37:44.591Z,84.30
2022-10-23T07:40:11.743Z,84.75
2022-10-23T07:42:38.899Z,83.56
2022-10-23T07:45:07.426Z,81.30
2022-10-23T07:47:34.117Z,80.82
2022-10-23T07:50:00.968Z,81.26
2022-10-23T07:52:30.838Z,77.80
2022-10-23T07:54:59.956Z,77.50
2022-10-23T07:57:26.385Z,76.50
2022-10-23T07:59:52.884Z,75.93
2022-10-23T08:02:20.724Z,74.11
2022-10-23T08:04:49.479Z,73.44
2022-10-23T08:07:15.950Z,73.56
2022-10-23T08:09:42.369Z,73.32
2022-10-23T08:12:09.647Z,71.02
2022-10-23T08:14:36.051Z,70.77
2022-10-23T08:17:03.217Z,69.92
2022-10-23T08:19:29.797Z,69.97
2022-10-23T08:21:57.259Z,71.90
2022-10-23T08:24:23.848Z,72.41
2022-10-23T08:26:50.531Z,71.41
2022-10-23T08:29:17.259Z,72.00
2022-10-23T08:31:43.866Z,72.60
2022-10-23T08:34:10.364Z,73.99
2022-10-23T08:36:39.160Z,74.63
2022-10-23T08:39:06.684Z,72.92
2022-10-23T08:41:38.557Z,70.86
2022-10-23T08:44:28.753Z,72.59
2022-10-23T08:47:10.541Z,70.97
2022-10-23T08:49:46.163Z,71.71
2022-10-23T08:52:23.488Z,71.30
2022-10-23T08:55:02.614Z,70.71
2022-10-23T08:57:40.032Z,70.01
2022-10-23T09:00:14.549Z,71.62
2022-10-23T09:02:50.384Z,72.16
2022-10-23T09:05:25.012Z,74.31
2022-10-23T09:08:34.073Z,72.05
2022-10-23T09:11:02.463Z,73.50
2022-10-23T09:13:39.057Z,74.08
2022-10-23T09:16:20.511Z,73.03
2022-10-23T09:18:48.910Z,73.06
2022-10-23T09:21:15.762Z,74.46
2022-10-23T09:23:42.225Z,73.52
2022-10-23T09:26:16.880Z,73.70
2022-10-23T09:29:02.348Z,75.08
2022-10-23T09:31:28.763Z,73.20
2022-10-23T09:34:01.503Z,74.52
2022-10-23T09:36:29.476Z,74.31
2022-10-23T09:38:59.420Z,73.09
2022-10-23T09:41:37.030Z,71.56
2022-10-23T09:44:20.776Z,72.40
2022-10-23T09:46:53.904Z,70.49
2022-10-23T09:49:26.240Z,71.15
2022-10-23T09:51:55.406Z,71.01
2022-10-23T09:54:24.136Z,70.71
2022-10-23T09:56:53.696Z,71.65
2022-10-23T09:59:31.128Z,71.24
2022-10-23T10:02:00.254Z,70.33
2022-10-23T10:04:41.124Z,69.14
2022-10-23T10:07:53.595Z,68.98
2022-10-23T10:10:20.124Z,69.49
2022-10-23T10:13:01.730Z,70.25
2022-10-23T10:15:40.266Z,68.64
2022-10-23T10:18:28.558Z,69.33
2022-10-23T10:21:05.437Z,68.92
2022-10-23T10:23:47.044Z,67.96
2022-10-23T10:26:34.707Z,68.54
2022-10-23T10:29:13.231Z,68.50
2022-10-23T10:31:53.838Z,68.58
2022-10-23T10:34:41.412Z,68.86
2022-10-23T10:37:34.882Z,66.93
2022-10-23T10:40:23.432Z,66.70
2022-10-23T10:43:10.997Z,68.05
2022-10-23T10:46:07.070Z,67.98
2022-10-23T10:48:45.176Z,67.11
2022-10-23T10:51:22.329Z,68.18
2022-10-23T10:53:53.756Z,66.63
2022-10-23T10:56:25.628Z,66.30
2022-10-23T10:59:24.388Z,66.26
2022-10-23T11:02:02.146Z,64.82
2022-10-23T11:04:45.597Z,64.28
2022-10-23T11:07:18.817Z,64.98
2022-10-23T11:09:46.266Z,64.44
2022-10-23T11:12:23.043Z,65.22
2022-10-23T11:14:50.327Z,64.18
2022-10-23T11:17:38.868Z,65.67
2022-10-23T11:20:24.107Z,64.93
2022-10-23T11:22:54.985Z,63.90
2022-10-23T11:25:39.691Z,64.63
2022-10-23T11:28:29.387Z,65.57
2022-10-23T11:31:22.774Z,65.72
2022-10-23T11:34:04.438Z,65.56
2022-10-23T11:37:08.988Z,65.21
2022-10-23T11:39:39.759Z,63.83
2022-10-23T11:42:06.130Z,62.80
2022-10-23T11:44:47.156Z,63.94
2022-10-23T11:47:27.968Z,63.67
2022-10-23T11:50:09.408Z,62.43
2022-10-23T11:53:12.600Z,63.27
2022-10-23T11:55:38.561Z,62.20
2022-10-23T11:58:04.921Z,61.91
2022-10-23T12:00:34.551Z,62.72
2022-10-23T12:03:02.008Z,59.52
2022-10-23T12:05:34.883Z,57.06
2022-10-23T12:08:04.178Z,55.50
2022-10-23T12:10:36.146Z,57.00
2022-10-23T12:13:06.421Z,56.97
2022-10-23T12:15:36.711Z,57.00
2022-10-23T12:18:17.297Z,58.20
2022-10-23T12:20:52.286Z,58.46
2022-10-23T12:23:57.045Z,59.09
2022-10-23T12:26:28.986Z,56.46
2022-10-23T12:29:16.483Z,57.41
2022-10-23T12:31:47.978Z,57.21
2022-10-23T12:34:42.788Z,57.91
2022-10-23T12:37:09.198Z,58.34
2022-10-23T12:39:38.983Z,58.62
2022-10-23T12:42:11.069Z,56.83
2022-10-23T12:44:37.518Z,56.40
2022-10-23T12:47:04.597Z,56.62
2022-10-23T12:49:33.689Z,57.28
2022-10-23T12:52:06.035Z,57.88
2022-10-23T12:54:38.278Z,58.51
2022-10-23T12:57:22.086Z,60.10
2022-10-23T12:59:49.996Z,61.43
2022-10-23T13:02:28.607Z,62.19
2022-10-23T13:04:58.411Z,62.37
2022-10-23T13:07:27.774Z,62.14
2022-10-23T13:09:55.167Z,62.22
2022-10-23T13:12:24.513Z,62.79
2022-10-23T13:15:03.232Z,62.54
2022-10-23T13:17:46.102Z,63.23
2022-10-23T13:20:22.540Z,63.08
2022-10-23T13:22:59.304Z,62.57
2022-10-23T13:25:32.838Z,63.13
2022-10-23T13:28:08.600Z,63.15
2022-10-23T13:30:40.291Z,64.02
2022-10-23T13:33:25.969Z,64.86
2022-10-23T13:36:04.132Z,65.79
2022-10-23T13:38:36.509Z,65.08
2022-10-23T13:41:05.068Z,64.93
2022-10-23T13:43:34.097Z,64.84
2022-10-23T13:46:01.144Z,64.97
2022-10-23T13:48:28.205Z,65.32
2022-10-23T13:50:58.224Z,65.26
2022-10-23T13:53:24.650Z,65.58
2022-10-23T13:55:54.927Z,65.53
2022-10-23T13:58:24.330Z,65.87
2022-10-23T14:00:51.102Z,65.91
2022-10-23T14:03:18.543Z,65.92
2022-10-23T14:05:44.970Z,66.46
2022-10-23T14:08:11.614Z,66.65
2022-10-23T14:10:38.087Z,64.99
2022-10-23T14:13:04.703Z,65.60
2022-10-23T14:15:31.127Z,65.13
2022-10-23T14:17:59.518Z,64.74
2022-10-23T14:20:27.911Z,65.16
2022-10-23T14:22:54.482Z,65.55
2022-10-23T14:25:22.260Z,65.52
2022-10-23T14:27:49.039Z,65.79
2022-10-23T14:30:15.903Z,65.60
2022-10-23T14:32:42.737Z,66.31
2022-10-23T14:35:09.669Z,66.59
2022-10-23T14:37:36.204Z,67.77
2022-10-23T14:40:02.751Z,67.54
2022-10-23T14:42:34.086Z,67.99
2022-10-23T14:45:02.457Z,68.52
2022-10-23T14:47:28.964Z,68.06
2022-10-23T14:49:56.176Z,68.99
2022-10-23T14:52:23.490Z,68.00
2022-10-23T14:54:53.505Z,68.19
2022-10-23T14:57:22.237Z,68.56
2022-10-23T14:59:49.504Z,69.29
2022-10-23T15:02:16.902Z,69.78
2022-10-23T15:04:43.515Z,70.13
2022-10-23T15:07:10.040Z,70.15
2022-10-23T15:09:37.413Z,70.01
2022-10-23T15:12:04.666Z,70.56
2022-10-23T15:14:31.218Z,69.97
2022-10-23T15:16:57.690Z,70.09
2022-10-23T15:19:24.309Z,70.37
2022-10-23T15:21:51.480Z,70.68
2022-10-23T15:24:18.568Z,71.30
2022-10-23T15:26:45.313Z,71.21
2022-10-23T15:29:12.824Z,70.99
2022-10-23T15:31:40.829Z,71.66
2022-10-23T15:34:18.854Z,71.67
2022-10-23T15:36:47.065Z,71.82
2022-10-23T15:39:16.090Z,72.18
2022-10-23T15:41:43.242Z,72.01
2022-10-23T15:44:14.102Z,72.11
2022-10-23T15:46:40.710Z,72.66
2022-10-23T15:49:08.515Z,72.95
2022-10-23T15:51:36.858Z,73.06
2022-10-23T15:54:05.622Z,72.79
2022-10-23T15:56:32.383Z,73.81
2022-10-23T15:58:59.067Z,73.44
2022-10-23T16:01:25.653Z,74.08
2022-10-23T16:03:52.456Z,74.44
2022-10-23T16:06:20.471Z,74.29
2022-10-23T16:08:47.128Z,75.15
2022-10-23T16:11:18.704Z,74.47
2022-10-23T16:13:45.598Z,75.18
2022-10-23T16:16:13.331Z,74.93
2022-10-23T16:18:39.931Z,75.37
2022-10-23T16:21:07.324Z,75.09
2022-10-23T16:23:34.580Z,75.07
2022-10-23T16:26:05.588Z,75.29
2022-10-23T16:28:32.114Z,75.75
2022-10-23T16:30:59.073Z,75.95
2022-10-23T16:33:25.695Z,75.59
2022-10-23T16:35:52.402Z,75.66
2022-10-23T16:38:19.255Z,75.54
2022-10-23T16:40:51.232Z,75.24
2022-10-23T16:43:17.774Z,76.10
2022-10-23T16:45:44.348Z,76.06
2022-10-23T16:48:11.118Z,76.03
2022-10-23T16:50:41.828Z,76.32
2022-10-23T16:53:08.607Z,76.59
2022-10-23T16:55:35.199Z,76.07
2022-10-23T16:58:01.851Z,76.50
2022-10-23T17:00:34.841Z,76.20
2022-10-23T17:03:05.042Z,76.47
2022-10-23T17:05:35.266Z,76.38
2022-10-23T17:08:02.012Z,77.12
2022-10-23T17:10:31.161Z,77.02
2022-10-23T17:12:57.589Z,76.59
2022-10-23T17:15:23.996Z,76.70
2022-10-23T17:17:50.585Z,76.92
2022-10-23T17:20:17.118Z,77.50
2022-10-23T17:22:43.535Z,76.59
2022-10-23T17:25:10.314Z,77.08
2022-10-23T17:27:36.774Z,77.54
2022-10-23T17:30:03.872Z,77.79
2022-10-23T17:32:30.424Z,77.95
2022-10-23T17:34:56.902Z,77.93
2022-10-23T17:37:23.371Z,77.97
2022-10-23T17:39:49.807Z,78.08
2022-10-23T17:42:16.258Z,77.83
2022-10-23T17:44:42.789Z,78.38
2022-10-23T17:47:09.229Z,78.38
2022-10-23T17:49:35.690Z,79.00
2022-10-23T17:52:02.193Z,79.16
2022-10-23T17:54:29.067Z,79.28
2022-10-23T17:56:55.697Z,79.61
2022-10-23T17:59:22.334Z,79.74
2022-10-23T18:01:49.559Z,79.56
2022-10-23T18:04:18.300Z,79.74
2022-10-23T18:06:48.357Z,80.37
2022-10-23T18:09:15.719Z,79.93
2022-10-23T18:11:46.863Z,80.54
2022-10-23T18:14:15.527Z,81.60
2022-10-23T18:16:42.002Z,81.30
2022-10-23T18:19:08.679Z,81.42
2022-10-23T18:21:35.904Z,81.61
2022-10-23T18:24:03.203Z,81.85
2022-10-23T18:26:32.137Z,82.29
2022-10-23T18:28:59.333Z,81.87
2022-10-23T18:31:29.659Z,82.05
2022-10-23T18:33:58.410Z,81.30
2022-10-23T18:36:27.346Z,81.82
2022-10-23T18:41:25.831Z,81.80
2022-10-23T18:43:54.082Z,81.58
2022-10-23T18:46:20.760Z,81.83
2022-10-23T18:48:47.854Z,81.80
2022-10-23T18:51:20.383Z,82.63
2022-10-23T18:53:47.643Z,83.57
2022-10-23T18:56:23.661Z,83.20
2022-10-23T18:58:51.171Z,83.35
2022-10-23T19:01:19.351Z,84.42
2022-10-23T19:03:45.930Z,84.08
2022-10-23T19:06:13.396Z,84.48
2022-10-23T19:08:42.277Z,84.80
2022-10-23T19:11:10.417Z,84.98
2022-10-23T19:13:39.486Z,85.02
2022-10-23T19:16:12.732Z,85.01
2022-10-23T19:18:42.975Z,84.79
2022-10-23T19:21:09.664Z,84.73
2022-10-23T19:23:37.995Z,84.97
2022-10-23T19:26:08.930Z,85.20
2022-10-23T19:28:42.690Z,85.29
2022-10-23T19:31:10.448Z,85.68
2022-10-23T19:33:38.471Z,86.08
2022-10-23T19:36:11.215Z,85.76
2022-10-23T19:38:41.458Z,85.92
2022-10-23T19:41:08.906Z,85.53
2022-10-23T19:43:37.631Z,85.77
2022-10-23T19:46:09.329Z,85.71
2022-10-23T19:48:42.271Z,86.23
2022-10-23T19:51:09.451Z,86.03
2022-10-23T19:53:36.353Z,87.45
2022-10-23T19:56:06.005Z,87.37
2022-10-23T19:58:32.862Z,87.81
2022-10-23T20:01:06.405Z,88.03
2022-10-23T20:03:33.048Z,88.60
2022-10-23T20:05:59.563Z,89.47
2022-10-23T20:08:25.990Z,89.04
2022-10-23T20:10:52.528Z,88.90
2022-10-23T20:13:20.429Z,89.31
2022-10-23T20:15:47.424Z,89.21
2022-10-23T20:18:13.902Z,89.43
2022-10-23T20:20:41.615Z,89.81
2022-10-23T20:23:08.337Z,89.94
2022-10-23T20:25:34.974Z,91.25
2022-10-23T20:28:01.488Z,90.75
2022-10-23T20:30:28.143Z,90.26
2022-10-23T20:32:54.562Z,90.56
2022-10-23T20:35:21.088Z,90.00
2022-10-23T20:37:47.488Z,90.05
2022-10-23T20:40:13.877Z,90.12
2022-10-23T20:42:40.311Z,90.06
2022-10-23T20:45:07.177Z,89.47
2022-10-23T20:47:33.609Z,89.16
2022-10-23T20:50:00.020Z,89.04
2022-10-23T20:52:29.388Z,89.20
2022-10-23T20:54:55.907Z,88.90
2022-10-23T20:57:22.324Z,88.48
2022-10-23T20:59:48.722Z,88.18
2022-10-23T21:02:15.279Z,88.09
2022-10-23T21:04:41.832Z,87.87
2022-10-23T21:07:10.333Z,87.94
2022-10-23T21:09:38.007Z,87.73
2022-10-23T21:12:06.376Z,88.45
2022-10-23T21:14:33.015Z,88.29
2022-10-23T21:16:59.464Z,88.46
2022-10-23T21:19:26.088Z,88.94
2022-10-23T21:21:52.549Z,90.00
2022-10-23T21:24:18.978Z,91.54
2022-10-23T21:26:45.570Z,92.07
2022-10-23T21:29:20.844Z,90.61
2022-10-23T21:31:55.649Z,90.79
2022-10-23T21:34:23.337Z,91.67
2022-10-23T21:39:36.174Z,91.73
2022-10-23T21:42:02.702Z,90.72
2022-10-23T21:44:29.117Z,90.41
2022-10-23T21:46:55.639Z,90.69
2022-10-23T21:49:22.142Z,90.48
2022-10-23T21:51:48.564Z,90.14
2022-10-23T21:54:15.114Z,90.30
2022-10-23T21:56:47.400Z,90.59
2022-10-23T21:59:16.750Z,90.10
2022-10-23T22:01:45.793Z,89.76
2022-10-23T22:04:14.398Z,90.26
2022-10-23T22:06:42.071Z,90.32
2022-10-23T22:09:11.660Z,89.70
2022-10-23T22:11:38.219Z,89.77
2022-10-23T22:14:04.894Z,89.09
2022-10-23T22:16:31.866Z,89.78
2022-10-23T22:18:58.319Z,89.37
2022-10-23T22:21:27.500Z,89.88
2022-10-23T22:23:55.565Z,89.94
2022-10-23T22:26:25.816Z,90.18
2022-10-23T22:28:54.552Z,90.05
2022-10-23T22:31:23.974Z,89.53
2022-10-23T22:33:51.728Z,89.98
2022-10-23T22:36:18.399Z,89.61
2022-10-23T22:38:45.224Z,89.24
2022-10-23T22:41:11.706Z,88.75
2022-10-23T22:43:38.390Z,88.63
2022-10-23T22:46:13.830Z,87.80
2022-10-23T22:48:41.271Z,87.70
2022-10-23T22:51:10.850Z,87.11
2022-10-23T22:53:37.538Z,86.77
2022-10-23T22:56:09.357Z,86.03
2022-10-23T22:58:36.633Z,85.08
2022-10-23T23:01:09.120Z,84.23
2022-10-23T23:03:37.055Z,84.04
2022-10-23T23:06:05.518Z,83.76
2022-10-23T23:08:32.650Z,83.45
2022-10-23T23:10:59.599Z,83.54
2022-10-23T23:13:26.337Z,83.33
2022-10-23T23:15:52.958Z,83.18
2022-10-23T23:18:19.560Z,82.86
2022-10-23T23:20:47.055Z,83.01
2022-10-23T23:23:14.166Z,82.62
2022-10-23T23:25:45.797Z,82.37
2022-10-23T23:28:14.304Z,82.39
2022-10-23T23:30:41.392Z,81.81
2022-10-23T23:33:08.953Z,81.70
2022-10-23T23:35:43.252Z,81.58
2022-10-23T23:38:11.376Z,81.51
2022-10-23T23:40:38.812Z,81.87
2022-10-23T23:43:05.520Z,81.90
2022-10-23T23:45:32.147Z,81.45
2022-10-23T23:47:58.921Z,81.80
2022-10-23T23:50:26.178Z,81.82
2022-10-23T23:52:52.561Z,81.93
2022-10-23T23:55:19.026Z,82.34
2022-10-23T23:57:45.746Z,82.06
